sensor_id;sensor_type;location;lat;lon;timestamp;P1;durP1;ratioP1;P2;durP2;ratioP2
11924;SDS011;6022;48.768;18.608;2023-05-09T00:01:32;1.63;;;1.53;;
11924;SDS011;6022;48.768;18.608;2023-05-09T00:04:02;1.47;;;1.37;;
11924;SDS011;6022;48.768;18.608;2023-05-09T00:06:33;2.87;;;1.77;;
11924;SDS011;6022;48.768;18.608;2023-05-09T00:09:01;2.93;;;1.50;;
11924;SDS011;6022;48.768;18.608;2023-05-09T00:11:33;1.23;;;1.00;;
11924;SDS011;6022;48.768;18.608;2023-05-09T00:14:02;2.37;;;1.63;;
11924;SDS011;6022;48.768;18.608;2023-05-09T00:16:32;3.77;;;1.57;;
11924;SDS011;6022;48.768;18.608;2023-05-09T00:19:04;2.27;;;1.43;;
11924;SDS011;6022;48.768;18.608;2023-05-09T00:21:32;1.30;;;1.20;;
11924;SDS011;6022;48.768;18.608;2023-05-09T00:24:03;2.40;;;1.47;;
11924;SDS011;6022;48.768;18.608;2023-05-09T00:26:32;1.97;;;1.37;;
11924;SDS011;6022;48.768;18.608;2023-05-09T00:29:03;1.27;;;1.17;;
11924;SDS011;6022;48.768;18.608;2023-05-09T00:31:32;1.10;;;1.10;;
11924;SDS011;6022;48.768;18.608;2023-05-09T00:34:00;3.50;;;1.20;;
11924;SDS011;6022;48.768;18.608;2023-05-09T00:36:31;0.97;;;0.97;;
11924;SDS011;6022;48.768;18.608;2023-05-09T00:39:01;1.80;;;1.70;;
11924;SDS011;6022;48.768;18.608;2023-05-09T00:41:31;1.63;;;0.80;;
11924;SDS011;6022;48.768;18.608;2023-05-09T00:44:03;1.40;;;1.30;;
11924;SDS011;6022;48.768;18.608;2023-05-09T00:46:34;1.83;;;1.17;;
11924;SDS011;6022;48.768;18.608;2023-05-09T00:49:07;2.53;;;1.40;;
11924;SDS011;6022;48.768;18.608;2023-05-09T00:51:35;1.30;;;1.10;;
11924;SDS011;6022;48.768;18.608;2023-05-09T00:54:07;1.53;;;1.00;;
11924;SDS011;6022;48.768;18.608;2023-05-09T00:56:39;1.30;;;1.20;;
11924;SDS011;6022;48.768;18.608;2023-05-09T00:59:09;0.57;;;0.57;;
11924;SDS011;6022;48.768;18.608;2023-05-09T01:01:39;1.03;;;1.03;;
11924;SDS011;6022;48.768;18.608;2023-05-09T01:04:12;1.20;;;1.00;;
11924;SDS011;6022;48.768;18.608;2023-05-09T01:12:51;1.20;;;1.10;;
11924;SDS011;6022;48.768;18.608;2023-05-09T01:15:35;1.83;;;1.10;;
11924;SDS011;6022;48.768;18.608;2023-05-09T01:21:30;1.20;;;1.10;;
11924;SDS011;6022;48.768;18.608;2023-05-09T01:24:12;1.83;;;1.50;;
11924;SDS011;6022;48.768;18.608;2023-05-09T01:27:14;1.00;;;1.00;;
11924;SDS011;6022;48.768;18.608;2023-05-09T01:30:11;1.80;;;1.27;;
11924;SDS011;6022;48.768;18.608;2023-05-09T01:32:46;1.10;;;1.10;;
11924;SDS011;6022;48.768;18.608;2023-05-09T01:35:19;1.03;;;1.03;;
11924;SDS011;6022;48.768;18.608;2023-05-09T01:37:53;1.33;;;1.03;;
11924;SDS011;6022;48.768;18.608;2023-05-09T01:40:26;2.10;;;1.70;;
11924;SDS011;6022;48.768;18.608;2023-05-09T01:43:00;1.00;;;1.00;;
11924;SDS011;6022;48.768;18.608;2023-05-09T01:45:36;1.90;;;1.40;;
11924;SDS011;6022;48.768;18.608;2023-05-09T01:48:13;1.43;;;1.17;;
11924;SDS011;6022;48.768;18.608;2023-05-09T01:50:42;1.23;;;1.00;;
11924;SDS011;6022;48.768;18.608;2023-05-09T01:53:16;2.67;;;1.47;;
11924;SDS011;6022;48.768;18.608;2023-05-09T01:55:46;0.87;;;0.87;;
11924;SDS011;6022;48.768;18.608;2023-05-09T01:58:18;1.83;;;1.30;;
11924;SDS011;6022;48.768;18.608;2023-05-09T02:00:51;0.80;;;0.80;;
11924;SDS011;6022;48.768;18.608;2023-05-09T02:03:28;1.10;;;0.90;;
11924;SDS011;6022;48.768;18.608;2023-05-09T02:06:00;1.27;;;1.07;;
11924;SDS011;6022;48.768;18.608;2023-05-09T02:08:32;1.33;;;1.23;;
11924;SDS011;6022;48.768;18.608;2023-05-09T02:11:03;3.17;;;1.30;;
11924;SDS011;6022;48.768;18.608;2023-05-09T02:13:39;1.23;;;0.97;;
11924;SDS011;6022;48.768;18.608;2023-05-09T02:16:09;1.57;;;1.20;;
11924;SDS011;6022;48.768;18.608;2023-05-09T02:18:40;0.73;;;0.73;;
11924;SDS011;6022;48.768;18.608;2023-05-09T02:21:10;1.37;;;1.27;;
11924;SDS011;6022;48.768;18.608;2023-05-09T02:23:41;0.83;;;0.83;;
11924;SDS011;6022;48.768;18.608;2023-05-09T02:26:09;2.13;;;1.93;;
11924;SDS011;6022;48.768;18.608;2023-05-09T02:28:41;1.77;;;1.67;;
11924;SDS011;6022;48.768;18.608;2023-05-09T02:31:11;1.30;;;1.20;;
11924;SDS011;6022;48.768;18.608;2023-05-09T02:33:44;8.50;;;1.63;;
11924;SDS011;6022;48.768;18.608;2023-05-09T02:36:14;1.03;;;0.70;;
11924;SDS011;6022;48.768;18.608;2023-05-09T02:38:46;1.63;;;1.43;;
11924;SDS011;6022;48.768;18.608;2023-05-09T02:41:17;1.03;;;0.93;;
11924;SDS011;6022;48.768;18.608;2023-05-09T02:43:53;3.57;;;1.63;;
11924;SDS011;6022;48.768;18.608;2023-05-09T02:46:21;1.43;;;1.23;;
11924;SDS011;6022;48.768;18.608;2023-05-09T02:48:51;1.43;;;1.00;;
11924;SDS011;6022;48.768;18.608;2023-05-09T02:51:26;1.53;;;1.47;;
11924;SDS011;6022;48.768;18.608;2023-05-09T02:53:59;2.03;;;1.53;;
11924;SDS011;6022;48.768;18.608;2023-05-09T02:56:34;1.23;;;1.00;;
11924;SDS011;6022;48.768;18.608;2023-05-09T02:59:04;2.27;;;2.07;;
11924;SDS011;6022;48.768;18.608;2023-05-09T03:01:35;1.53;;;1.33;;
11924;SDS011;6022;48.768;18.608;2023-05-09T03:04:07;2.27;;;1.23;;
11924;SDS011;6022;48.768;18.608;2023-05-09T03:06:38;1.80;;;1.57;;
11924;SDS011;6022;48.768;18.608;2023-05-09T03:09:10;3.80;;;1.33;;
11924;SDS011;6022;48.768;18.608;2023-05-09T03:11:43;1.43;;;1.40;;
11924;SDS011;6022;48.768;18.608;2023-05-09T03:14:13;1.90;;;1.77;;
11924;SDS011;6022;48.768;18.608;2023-05-09T03:16:41;3.80;;;1.87;;
11924;SDS011;6022;48.768;18.608;2023-05-09T03:19:14;4.50;;;1.97;;
11924;SDS011;6022;48.768;18.608;2023-05-09T03:21:44;1.67;;;1.37;;
11924;SDS011;6022;48.768;18.608;2023-05-09T03:24:17;2.17;;;1.73;;
11924;SDS011;6022;48.768;18.608;2023-05-09T03:26:49;2.53;;;1.47;;
11924;SDS011;6022;48.768;18.608;2023-05-09T03:29:21;1.83;;;1.40;;
11924;SDS011;6022;48.768;18.608;2023-05-09T03:31:51;2.07;;;0.93;;
11924;SDS011;6022;48.768;18.608;2023-05-09T03:34:26;1.30;;;1.10;;
11924;SDS011;6022;48.768;18.608;2023-05-09T03:37:05;0.93;;;0.73;;
11924;SDS011;6022;48.768;18.608;2023-05-09T03:39:35;2.83;;;1.63;;
11924;SDS011;6022;48.768;18.608;2023-05-09T03:42:05;1.70;;;1.30;;
11924;SDS011;6022;48.768;18.608;2023-05-09T03:44:39;1.67;;;1.30;;
11924;SDS011;6022;48.768;18.608;2023-05-09T03:47:08;3.53;;;1.97;;
11924;SDS011;6022;48.768;18.608;2023-05-09T03:49:40;6.70;;;3.37;;
11924;SDS011;6022;48.768;18.608;2023-05-09T03:52:10;3.60;;;2.07;;
11924;SDS011;6022;48.768;18.608;2023-05-09T03:54:45;5.97;;;2.30;;
11924;SDS011;6022;48.768;18.608;2023-05-09T03:57:13;2.77;;;1.43;;
11924;SDS011;6022;48.768;18.608;2023-05-09T03:59:43;2.07;;;1.83;;
11924;SDS011;6022;48.768;18.608;2023-05-09T04:02:16;2.97;;;1.93;;
11924;SDS011;6022;48.768;18.608;2023-05-09T04:04:48;1.77;;;1.60;;
11924;SDS011;6022;48.768;18.608;2023-05-09T04:07:21;1.37;;;1.27;;
11924;SDS011;6022;48.768;18.608;2023-05-09T04:09:56;1.93;;;1.73;;
11924;SDS011;6022;48.768;18.608;2023-05-09T04:12:44;1.60;;;1.40;;
11924;SDS011;6022;48.768;18.608;2023-05-09T04:15:13;1.57;;;1.17;;
11924;SDS011;6022;48.768;18.608;2023-05-09T04:17:45;1.07;;;0.97;;
11924;SDS011;6022;48.768;18.608;2023-05-09T04:20:17;1.37;;;1.27;;
11924;SDS011;6022;48.768;18.608;2023-05-09T04:22:49;3.00;;;1.20;;
11924;SDS011;6022;48.768;18.608;2023-05-09T04:25:22;0.70;;;0.70;;
11924;SDS011;6022;48.768;18.608;2023-05-09T04:27:52;0.97;;;0.83;;
11924;SDS011;6022;48.768;18.608;2023-05-09T04:30:22;0.20;;;0.20;;
11924;SDS011;6022;48.768;18.608;2023-05-09T04:32:54;1.17;;;1.13;;
11924;SDS011;6022;48.768;18.608;2023-05-09T04:35:30;5.83;;;3.43;;
11924;SDS011;6022;48.768;18.608;2023-05-09T04:38:08;1.20;;;1.10;;
11924;SDS011;6022;48.768;18.608;2023-05-09T04:40:37;0.10;;;0.10;;
11924;SDS011;6022;48.768;18.608;2023-05-09T04:43:14;0.37;;;0.37;;
11924;SDS011;6022;48.768;18.608;2023-05-09T04:45:50;0.10;;;0.10;;
11924;SDS011;6022;48.768;18.608;2023-05-09T04:48:27;0.53;;;0.50;;
11924;SDS011;6022;48.768;18.608;2023-05-09T04:51:08;1.03;;;1.03;;
11924;SDS011;6022;48.768;18.608;2023-05-09T04:53:43;3.37;;;1.83;;
11924;SDS011;6022;48.768;18.608;2023-05-09T04:56:16;2.13;;;1.50;;
11924;SDS011;6022;48.768;18.608;2023-05-09T04:58:47;1.87;;;1.37;;
11924;SDS011;6022;48.768;18.608;2023-05-09T05:01:27;1.93;;;1.10;;
11924;SDS011;6022;48.768;18.608;2023-05-09T05:04:01;1.67;;;1.37;;
11924;SDS011;6022;48.768;18.608;2023-05-09T05:06:37;1.40;;;1.30;;
11924;SDS011;6022;48.768;18.608;2023-05-09T05:09:12;1.37;;;1.27;;
11924;SDS011;6022;48.768;18.608;2023-05-09T05:11:44;1.93;;;1.43;;
11924;SDS011;6022;48.768;18.608;2023-05-09T05:14:30;1.43;;;1.33;;
11924;SDS011;6022;48.768;18.608;2023-05-09T05:17:01;2.63;;;1.83;;
11924;SDS011;6022;48.768;18.608;2023-05-09T05:19:31;2.37;;;1.80;;
11924;SDS011;6022;48.768;18.608;2023-05-09T05:22:00;2.13;;;1.70;;
11924;SDS011;6022;48.768;18.608;2023-05-09T05:24:30;3.43;;;2.07;;
11924;SDS011;6022;48.768;18.608;2023-05-09T05:27:08;1.87;;;1.73;;
11924;SDS011;6022;48.768;18.608;2023-05-09T05:29:39;3.10;;;1.70;;
11924;SDS011;6022;48.768;18.608;2023-05-09T05:32:06;2.10;;;1.70;;
11924;SDS011;6022;48.768;18.608;2023-05-09T05:34:37;2.57;;;1.67;;
11924;SDS011;6022;48.768;18.608;2023-05-09T05:37:09;1.37;;;1.27;;
11924;SDS011;6022;48.768;18.608;2023-05-09T05:39:59;1.30;;;1.20;;
11924;SDS011;6022;48.768;18.608;2023-05-09T05:42:30;2.30;;;1.93;;
11924;SDS011;6022;48.768;18.608;2023-05-09T05:44:59;3.07;;;2.03;;
11924;SDS011;6022;48.768;18.608;2023-05-09T05:47:34;1.57;;;1.43;;
11924;SDS011;6022;48.768;18.608;2023-05-09T05:50:06;5.73;;;1.83;;
11924;SDS011;6022;48.768;18.608;2023-05-09T05:52:38;2.20;;;1.83;;
11924;SDS011;6022;48.768;18.608;2023-05-09T05:55:09;3.33;;;2.30;;
11924;SDS011;6022;48.768;18.608;2023-05-09T05:57:39;3.27;;;2.43;;
11924;SDS011;6022;48.768;18.608;2023-05-09T06:00:10;1.63;;;1.50;;
11924;SDS011;6022;48.768;18.608;2023-05-09T06:02:41;2.63;;;1.47;;
11924;SDS011;6022;48.768;18.608;2023-05-09T06:05:12;1.93;;;1.57;;
11924;SDS011;6022;48.768;18.608;2023-05-09T06:07:45;1.77;;;1.67;;
11924;SDS011;6022;48.768;18.608;2023-05-09T06:10:17;2.03;;;1.83;;
11924;SDS011;6022;48.768;18.608;2023-05-09T06:12:46;2.07;;;1.80;;
11924;SDS011;6022;48.768;18.608;2023-05-09T06:15:18;2.67;;;2.10;;
11924;SDS011;6022;48.768;18.608;2023-05-09T06:17:49;3.93;;;2.73;;
11924;SDS011;6022;48.768;18.608;2023-05-09T06:20:18;1.83;;;1.67;;
11924;SDS011;6022;48.768;18.608;2023-05-09T06:22:55;1.97;;;1.63;;
11924;SDS011;6022;48.768;18.608;2023-05-09T06:25:24;2.30;;;2.00;;
11924;SDS011;6022;48.768;18.608;2023-05-09T06:27:56;1.63;;;1.50;;
11924;SDS011;6022;48.768;18.608;2023-05-09T06:30:29;2.27;;;2.07;;
11924;SDS011;6022;48.768;18.608;2023-05-09T06:32:58;2.10;;;1.97;;
11924;SDS011;6022;48.768;18.608;2023-05-09T06:35:26;2.80;;;2.03;;
11924;SDS011;6022;48.768;18.608;2023-05-09T06:37:57;3.07;;;1.70;;
11924;SDS011;6022;48.768;18.608;2023-05-09T06:40:26;2.73;;;2.17;;
11924;SDS011;6022;48.768;18.608;2023-05-09T06:42:55;1.70;;;1.60;;
11924;SDS011;6022;48.768;18.608;2023-05-09T06:45:25;4.33;;;2.07;;
11924;SDS011;6022;48.768;18.608;2023-05-09T06:47:55;1.67;;;1.53;;
11924;SDS011;6022;48.768;18.608;2023-05-09T06:50:34;1.30;;;1.20;;
11924;SDS011;6022;48.768;18.608;2023-05-09T06:53:04;4.57;;;1.63;;
11924;SDS011;6022;48.768;18.608;2023-05-09T06:55:36;2.63;;;2.07;;
11924;SDS011;6022;48.768;18.608;2023-05-09T06:58:19;2.87;;;1.90;;
11924;SDS011;6022;48.768;18.608;2023-05-09T07:00:51;2.57;;;1.90;;
11924;SDS011;6022;48.768;18.608;2023-05-09T07:03:21;1.67;;;1.27;;
11924;SDS011;6022;48.768;18.608;2023-05-09T07:05:50;1.83;;;1.73;;
11924;SDS011;6022;48.768;18.608;2023-05-09T07:08:21;2.30;;;1.77;;
11924;SDS011;6022;48.768;18.608;2023-05-09T07:10:58;1.77;;;1.67;;
11924;SDS011;6022;48.768;18.608;2023-05-09T07:13:31;1.73;;;1.50;;
11924;SDS011;6022;48.768;18.608;2023-05-09T07:16:02;1.43;;;1.33;;
11924;SDS011;6022;48.768;18.608;2023-05-09T07:18:35;1.27;;;1.13;;
11924;SDS011;6022;48.768;18.608;2023-05-09T07:21:14;3.17;;;2.20;;
11924;SDS011;6022;48.768;18.608;2023-05-09T07:23:45;2.20;;;1.47;;
11924;SDS011;6022;48.768;18.608;2023-05-09T07:26:31;4.10;;;1.40;;
11924;SDS011;6022;48.768;18.608;2023-05-09T07:29:02;1.40;;;1.30;;
11924;SDS011;6022;48.768;18.608;2023-05-09T07:31:35;1.63;;;1.53;;
11924;SDS011;6022;48.768;18.608;2023-05-09T07:34:05;1.33;;;1.23;;
11924;SDS011;6022;48.768;18.608;2023-05-09T07:36:41;1.07;;;0.97;;
11924;SDS011;6022;48.768;18.608;2023-05-09T07:39:14;1.70;;;1.40;;
11924;SDS011;6022;48.768;18.608;2023-05-09T07:41:44;3.17;;;1.43;;
11924;SDS011;6022;48.768;18.608;2023-05-09T07:44:14;6.83;;;1.73;;
11924;SDS011;6022;48.768;18.608;2023-05-09T07:46:46;2.63;;;0.87;;
11924;SDS011;6022;48.768;18.608;2023-05-09T07:49:26;1.30;;;1.20;;
11924;SDS011;6022;48.768;18.608;2023-05-09T07:52:01;2.40;;;1.30;;
11924;SDS011;6022;48.768;18.608;2023-05-09T07:54:42;1.33;;;1.27;;
11924;SDS011;6022;48.768;18.608;2023-05-09T07:57:12;1.13;;;1.03;;
11924;SDS011;6022;48.768;18.608;2023-05-09T08:00:01;2.07;;;1.00;;
11924;SDS011;6022;48.768;18.608;2023-05-09T08:02:32;0.97;;;0.97;;
11924;SDS011;6022;48.768;18.608;2023-05-09T08:05:02;2.93;;;1.63;;
11924;SDS011;6022;48.768;18.608;2023-05-09T08:07:33;1.07;;;0.97;;
11924;SDS011;6022;48.768;18.608;2023-05-09T08:10:03;0.90;;;0.90;;
11924;SDS011;6022;48.768;18.608;2023-05-09T08:12:33;1.10;;;1.00;;
11924;SDS011;6022;48.768;18.608;2023-05-09T08:15:05;0.83;;;0.83;;
11924;SDS011;6022;48.768;18.608;2023-05-09T08:17:35;2.10;;;1.57;;
11924;SDS011;6022;48.768;18.608;2023-05-09T08:20:08;0.90;;;0.90;;
11924;SDS011;6022;48.768;18.608;2023-05-09T08:22:37;0.97;;;0.93;;
11924;SDS011;6022;48.768;18.608;2023-05-09T08:25:06;0.63;;;0.63;;
11924;SDS011;6022;48.768;18.608;2023-05-09T08:27:35;0.87;;;0.70;;
11924;SDS011;6022;48.768;18.608;2023-05-09T08:30:04;0.77;;;0.73;;
11924;SDS011;6022;48.768;18.608;2023-05-09T08:32:35;0.87;;;0.87;;
11924;SDS011;6022;48.768;18.608;2023-05-09T08:35:04;2.53;;;1.03;;
11924;SDS011;6022;48.768;18.608;2023-05-09T08:37:35;0.67;;;0.67;;
11924;SDS011;6022;48.768;18.608;2023-05-09T08:40:03;0.50;;;0.50;;
11924;SDS011;6022;48.768;18.608;2023-05-09T08:42:35;0.80;;;0.80;;
11924;SDS011;6022;48.768;18.608;2023-05-09T08:45:13;1.13;;;0.93;;
11924;SDS011;6022;48.768;18.608;2023-05-09T08:47:47;0.93;;;0.93;;
11924;SDS011;6022;48.768;18.608;2023-05-09T08:50:19;1.33;;;1.07;;
11924;SDS011;6022;48.768;18.608;2023-05-09T08:52:48;0.60;;;0.60;;
11924;SDS011;6022;48.768;18.608;2023-05-09T08:55:17;0.77;;;0.77;;
11924;SDS011;6022;48.768;18.608;2023-05-09T08:57:47;0.80;;;0.80;;
11924;SDS011;6022;48.768;18.608;2023-05-09T09:00:19;0.60;;;0.57;;
11924;SDS011;6022;48.768;18.608;2023-05-09T09:02:49;1.73;;;0.60;;
11924;SDS011;6022;48.768;18.608;2023-05-09T09:05:25;0.80;;;0.80;;
11924;SDS011;6022;48.768;18.608;2023-05-09T09:08:12;1.10;;;0.83;;
11924;SDS011;6022;48.768;18.608;2023-05-09T09:10:41;0.80;;;0.80;;
11924;SDS011;6022;48.768;18.608;2023-05-09T09:13:16;0.77;;;0.57;;
11924;SDS011;6022;48.768;18.608;2023-05-09T09:15:47;0.57;;;0.57;;
11924;SDS011;6022;48.768;18.608;2023-05-09T09:18:22;1.47;;;0.50;;
11924;SDS011;6022;48.768;18.608;2023-05-09T09:20:58;0.73;;;0.73;;
11924;SDS011;6022;48.768;18.608;2023-05-09T09:23:36;0.77;;;0.77;;
11924;SDS011;6022;48.768;18.608;2023-05-09T09:26:09;0.80;;;0.80;;
11924;SDS011;6022;48.768;18.608;2023-05-09T09:28:40;0.67;;;0.63;;
11924;SDS011;6022;48.768;18.608;2023-05-09T09:31:20;0.77;;;0.57;;
11924;SDS011;6022;48.768;18.608;2023-05-09T09:33:52;0.43;;;0.43;;
11924;SDS011;6022;48.768;18.608;2023-05-09T09:36:30;0.57;;;0.50;;
11924;SDS011;6022;48.768;18.608;2023-05-09T09:39:02;2.03;;;0.67;;
11924;SDS011;6022;48.768;18.608;2023-05-09T09:41:33;2.30;;;0.57;;
11924;SDS011;6022;48.768;18.608;2023-05-09T09:44:08;0.50;;;0.50;;
11924;SDS011;6022;48.768;18.608;2023-05-09T09:46:40;4.23;;;0.67;;
11924;SDS011;6022;48.768;18.608;2023-05-09T09:49:18;3.50;;;0.87;;
11924;SDS011;6022;48.768;18.608;2023-05-09T09:51:54;0.93;;;0.93;;
11924;SDS011;6022;48.768;18.608;2023-05-09T09:54:26;0.80;;;0.80;;
11924;SDS011;6022;48.768;18.608;2023-05-09T09:56:54;0.63;;;0.60;;
11924;SDS011;6022;48.768;18.608;2023-05-09T09:59:23;1.77;;;0.50;;
11924;SDS011;6022;48.768;18.608;2023-05-09T10:01:59;0.70;;;0.70;;
11924;SDS011;6022;48.768;18.608;2023-05-09T10:04:36;0.63;;;0.60;;
11924;SDS011;6022;48.768;18.608;2023-05-09T10:07:08;0.60;;;0.60;;
11924;SDS011;6022;48.768;18.608;2023-05-09T10:09:40;0.80;;;0.80;;
11924;SDS011;6022;48.768;18.608;2023-05-09T10:12:09;0.33;;;0.33;;
11924;SDS011;6022;48.768;18.608;2023-05-09T10:14:40;1.00;;;0.60;;
11924;SDS011;6022;48.768;18.608;2023-05-09T10:17:10;1.03;;;1.03;;
11924;SDS011;6022;48.768;18.608;2023-05-09T10:19:44;0.37;;;0.33;;
11924;SDS011;6022;48.768;18.608;2023-05-09T10:22:15;0.60;;;0.60;;
11924;SDS011;6022;48.768;18.608;2023-05-09T10:24:46;1.20;;;0.90;;
11924;SDS011;6022;48.768;18.608;2023-05-09T10:27:27;1.43;;;0.60;;
11924;SDS011;6022;48.768;18.608;2023-05-09T10:30:08;0.53;;;0.50;;
11924;SDS011;6022;48.768;18.608;2023-05-09T10:35:32;0.83;;;0.53;;
11924;SDS011;6022;48.768;18.608;2023-05-09T10:38:07;0.60;;;0.60;;
11924;SDS011;6022;48.768;18.608;2023-05-09T10:40:42;0.63;;;0.33;;
11924;SDS011;6022;48.768;18.608;2023-05-09T10:43:13;0.50;;;0.50;;
11924;SDS011;6022;48.768;18.608;2023-05-09T10:45:45;0.53;;;0.40;;
11924;SDS011;6022;48.768;18.608;2023-05-09T10:48:15;0.70;;;0.70;;
11924;SDS011;6022;48.768;18.608;2023-05-09T10:50:44;0.83;;;0.60;;
11924;SDS011;6022;48.768;18.608;2023-05-09T10:53:14;0.40;;;0.40;;
11924;SDS011;6022;48.768;18.608;2023-05-09T10:55:53;0.30;;;0.30;;
11924;SDS011;6022;48.768;18.608;2023-05-09T10:58:29;0.40;;;0.33;;
11924;SDS011;6022;48.768;18.608;2023-05-09T11:01:00;0.30;;;0.30;;
11924;SDS011;6022;48.768;18.608;2023-05-09T11:09:26;0.93;;;0.60;;
11924;SDS011;6022;48.768;18.608;2023-05-09T11:20:00;2.47;;;0.67;;
11924;SDS011;6022;48.768;18.608;2023-05-09T11:22:41;2.77;;;0.70;;
11924;SDS011;6022;48.768;18.608;2023-05-09T11:25:23;0.33;;;0.33;;
11924;SDS011;6022;48.768;18.608;2023-05-09T11:28:05;0.60;;;0.60;;
11924;SDS011;6022;48.768;18.608;2023-05-09T11:30:39;0.50;;;0.50;;
11924;SDS011;6022;48.768;18.608;2023-05-09T11:33:22;0.57;;;0.50;;
11924;SDS011;6022;48.768;18.608;2023-05-09T11:39:03;0.20;;;0.20;;
11924;SDS011;6022;48.768;18.608;2023-05-09T11:41:48;0.50;;;0.50;;
11924;SDS011;6022;48.768;18.608;2023-05-09T11:44:20;0.90;;;0.63;;
11924;SDS011;6022;48.768;18.608;2023-05-09T11:46:50;0.57;;;0.50;;
11924;SDS011;6022;48.768;18.608;2023-05-09T11:49:19;0.23;;;0.23;;
11924;SDS011;6022;48.768;18.608;2023-05-09T11:51:50;0.50;;;0.50;;
11924;SDS011;6022;48.768;18.608;2023-05-09T11:54:50;0.93;;;0.80;;
11924;SDS011;6022;48.768;18.608;2023-05-09T11:57:20;1.20;;;1.00;;
11924;SDS011;6022;48.768;18.608;2023-05-09T11:59:49;9.80;;;3.73;;
11924;SDS011;6022;48.768;18.608;2023-05-09T12:02:20;0.40;;;0.40;;
11924;SDS011;6022;48.768;18.608;2023-05-09T12:04:50;0.67;;;0.43;;
11924;SDS011;6022;48.768;18.608;2023-05-09T12:07:32;0.60;;;0.60;;
11924;SDS011;6022;48.768;18.608;2023-05-09T12:10:09;0.63;;;0.60;;
11924;SDS011;6022;48.768;18.608;2023-05-09T12:12:50;0.87;;;0.60;;
11924;SDS011;6022;48.768;18.608;2023-05-09T12:15:21;0.87;;;0.40;;
11924;SDS011;6022;48.768;18.608;2023-05-09T12:18:03;0.83;;;0.67;;
11924;SDS011;6022;48.768;18.608;2023-05-09T12:20:44;1.37;;;1.17;;
11924;SDS011;6022;48.768;18.608;2023-05-09T12:23:24;0.93;;;0.57;;
11924;SDS011;6022;48.768;18.608;2023-05-09T12:25:53;0.33;;;0.33;;
11924;SDS011;6022;48.768;18.608;2023-05-09T12:28:23;0.87;;;0.80;;
11924;SDS011;6022;48.768;18.608;2023-05-09T12:30:52;0.70;;;0.50;;
11924;SDS011;6022;48.768;18.608;2023-05-09T12:33:22;0.53;;;0.53;;
11924;SDS011;6022;48.768;18.608;2023-05-09T12:36:05;0.33;;;0.33;;
11924;SDS011;6022;48.768;18.608;2023-05-09T12:38:38;0.37;;;0.37;;
11924;SDS011;6022;48.768;18.608;2023-05-09T12:41:20;0.50;;;0.50;;
11924;SDS011;6022;48.768;18.608;2023-05-09T12:43:56;0.80;;;0.80;;
11924;SDS011;6022;48.768;18.608;2023-05-09T12:46:32;0.40;;;0.40;;
11924;SDS011;6022;48.768;18.608;2023-05-09T12:49:05;0.60;;;0.60;;
11924;SDS011;6022;48.768;18.608;2023-05-09T12:51:53;0.60;;;0.60;;
11924;SDS011;6022;48.768;18.608;2023-05-09T12:54:34;0.50;;;0.50;;
11924;SDS011;6022;48.768;18.608;2023-05-09T12:57:20;0.60;;;0.60;;
11924;SDS011;6022;48.768;18.608;2023-05-09T12:59:56;0.60;;;0.40;;
11924;SDS011;6022;48.768;18.608;2023-05-09T13:02:34;0.50;;;0.50;;
11924;SDS011;6022;48.768;18.608;2023-05-09T13:05:07;0.50;;;0.50;;
11924;SDS011;6022;48.768;18.608;2023-05-09T13:07:46;0.97;;;0.40;;
11924;SDS011;6022;48.768;18.608;2023-05-09T13:10:26;0.97;;;0.43;;
11924;SDS011;6022;48.768;18.608;2023-05-09T13:12:54;0.60;;;0.37;;
11924;SDS011;6022;48.768;18.608;2023-05-09T13:15:26;0.30;;;0.30;;
11924;SDS011;6022;48.768;18.608;2023-05-09T13:17:58;0.60;;;0.30;;
11924;SDS011;6022;48.768;18.608;2023-05-09T13:20:26;0.40;;;0.40;;
11924;SDS011;6022;48.768;18.608;2023-05-09T13:22:59;1.13;;;1.03;;
11924;SDS011;6022;48.768;18.608;2023-05-09T13:25:37;0.37;;;0.37;;
11924;SDS011;6022;48.768;18.608;2023-05-09T13:28:05;0.23;;;0.23;;
11924;SDS011;6022;48.768;18.608;2023-05-09T13:30:34;0.50;;;0.40;;
11924;SDS011;6022;48.768;18.608;2023-05-09T13:33:04;0.47;;;0.43;;
11924;SDS011;6022;48.768;18.608;2023-05-09T13:35:49;0.60;;;0.40;;
11924;SDS011;6022;48.768;18.608;2023-05-09T13:38:18;0.67;;;0.57;;
11924;SDS011;6022;48.768;18.608;2023-05-09T13:40:47;0.80;;;0.80;;
11924;SDS011;6022;48.768;18.608;2023-05-09T13:43:17;0.80;;;0.60;;
11924;SDS011;6022;48.768;18.608;2023-05-09T13:45:47;0.60;;;0.60;;
11924;SDS011;6022;48.768;18.608;2023-05-09T13:48:16;0.30;;;0.30;;
11924;SDS011;6022;48.768;18.608;2023-05-09T13:50:46;0.30;;;0.30;;
11924;SDS011;6022;48.768;18.608;2023-05-09T13:53:16;0.57;;;0.57;;
11924;SDS011;6022;48.768;18.608;2023-05-09T13:55:50;0.60;;;0.50;;
11924;SDS011;6022;48.768;18.608;2023-05-09T13:58:38;0.57;;;0.43;;
11924;SDS011;6022;48.768;18.608;2023-05-09T14:01:07;0.40;;;0.23;;
11924;SDS011;6022;48.768;18.608;2023-05-09T14:03:37;0.50;;;0.50;;
11924;SDS011;6022;48.768;18.608;2023-05-09T14:06:25;0.40;;;0.40;;
11924;SDS011;6022;48.768;18.608;2023-05-09T14:08:57;0.30;;;0.30;;
11924;SDS011;6022;48.768;18.608;2023-05-09T14:11:28;1.17;;;0.40;;
11924;SDS011;6022;48.768;18.608;2023-05-09T14:14:04;0.50;;;0.50;;
11924;SDS011;6022;48.768;18.608;2023-05-09T14:16:33;0.57;;;0.57;;
11924;SDS011;6022;48.768;18.608;2023-05-09T14:19:04;0.60;;;0.60;;
11924;SDS011;6022;48.768;18.608;2023-05-09T14:21:37;0.30;;;0.30;;
11924;SDS011;6022;48.768;18.608;2023-05-09T14:24:18;1.80;;;0.43;;
11924;SDS011;6022;48.768;18.608;2023-05-09T14:27:06;0.30;;;0.30;;
11924;SDS011;6022;48.768;18.608;2023-05-09T14:29:34;1.53;;;0.53;;
11924;SDS011;6022;48.768;18.608;2023-05-09T14:32:06;0.40;;;0.40;;
11924;SDS011;6022;48.768;18.608;2023-05-09T14:34:39;0.23;;;0.23;;
11924;SDS011;6022;48.768;18.608;2023-05-09T14:37:10;0.30;;;0.30;;
11924;SDS011;6022;48.768;18.608;2023-05-09T14:39:42;0.30;;;0.30;;
11924;SDS011;6022;48.768;18.608;2023-05-09T14:42:11;1.03;;;0.40;;
11924;SDS011;6022;48.768;18.608;2023-05-09T14:44:40;0.40;;;0.40;;
11924;SDS011;6022;48.768;18.608;2023-05-09T14:47:23;0.63;;;0.57;;
11924;SDS011;6022;48.768;18.608;2023-05-09T14:49:53;1.20;;;1.10;;
11924;SDS011;6022;48.768;18.608;2023-05-09T14:52:22;0.80;;;0.70;;
11924;SDS011;6022;48.768;18.608;2023-05-09T14:55:03;0.97;;;0.87;;
11924;SDS011;6022;48.768;18.608;2023-05-09T14:57:33;0.80;;;0.80;;
11924;SDS011;6022;48.768;18.608;2023-05-09T15:00:01;0.43;;;0.40;;
11924;SDS011;6022;48.768;18.608;2023-05-09T15:02:46;0.60;;;0.40;;
11924;SDS011;6022;48.768;18.608;2023-05-09T15:05:16;0.30;;;0.30;;
11924;SDS011;6022;48.768;18.608;2023-05-09T15:07:44;0.40;;;0.40;;
11924;SDS011;6022;48.768;18.608;2023-05-09T15:10:15;0.67;;;0.67;;
11924;SDS011;6022;48.768;18.608;2023-05-09T15:12:47;0.73;;;0.60;;
11924;SDS011;6022;48.768;18.608;2023-05-09T15:15:32;0.83;;;0.47;;
11924;SDS011;6022;48.768;18.608;2023-05-09T15:18:04;0.97;;;0.77;;
11924;SDS011;6022;48.768;18.608;2023-05-09T15:20:46;0.30;;;0.30;;
11924;SDS011;6022;48.768;18.608;2023-05-09T15:23:14;1.00;;;0.50;;
11924;SDS011;6022;48.768;18.608;2023-05-09T15:25:43;1.27;;;0.47;;
11924;SDS011;6022;48.768;18.608;2023-05-09T15:28:20;1.37;;;0.60;;
11924;SDS011;6022;48.768;18.608;2023-05-09T15:30:58;0.53;;;0.47;;
11924;SDS011;6022;48.768;18.608;2023-05-09T15:33:30;0.67;;;0.67;;
11924;SDS011;6022;48.768;18.608;2023-05-09T15:36:01;0.30;;;0.30;;
11924;SDS011;6022;48.768;18.608;2023-05-09T15:38:49;0.30;;;0.30;;
11924;SDS011;6022;48.768;18.608;2023-05-09T15:41:17;0.63;;;0.40;;
11924;SDS011;6022;48.768;18.608;2023-05-09T15:43:47;0.40;;;0.40;;
11924;SDS011;6022;48.768;18.608;2023-05-09T15:46:16;1.43;;;0.60;;
11924;SDS011;6022;48.768;18.608;2023-05-09T15:48:48;0.63;;;0.63;;
11924;SDS011;6022;48.768;18.608;2023-05-09T15:51:24;0.47;;;0.47;;
11924;SDS011;6022;48.768;18.608;2023-05-09T15:54:59;0.50;;;0.43;;